createdAt,value
2022-09-20T00:00:48.472Z,101564.63
2022-09-20T00:03:16.855Z,101570.03
2022-09-20T00:05:45.420Z,101570.06
2022-09-20T00:08:15.246Z,101566.94
2022-09-20T00:10:42.977Z,101571.09
2022-09-20T00:13:11.354Z,101570.91
2022-09-20T00:16:05.951Z,101560.41
2022-09-20T00:18:32.798Z,101571.78
2022-09-20T00:20:59.437Z,101567.25
2022-09-20T00:23:26.435Z,101561.22
2022-09-20T00:25:57.712Z,101574.47
2022-09-20T00:28:25.521Z,101568.38
2022-09-20T00:30:53.084Z,101569.91
2022-09-20T00:33:20.393Z,101568.69
2022-09-20T00:35:47.262Z,101569.91
2022-09-20T00:38:14.101Z,101570.59
2022-09-20T00:40:42.266Z,101573.38
2022-09-20T00:43:16.416Z,101581.44
2022-09-20T00:45:44.710Z,101580.03
2022-09-20T00:48:37.725Z,101572.72
2022-09-20T00:51:09.114Z,101577.19
2022-09-20T00:53:41.094Z,101579.84
2022-09-20T00:56:11.231Z,101581.06
2022-09-20T00:58:41.704Z,101574.78
2022-09-20T01:01:08.576Z,101577.25
2022-09-20T01:03:36.790Z,101574.03
2022-09-20T01:06:07.320Z,101572.88
2022-09-20T01:08:34.461Z,101575.50
2022-09-20T01:11:01.859Z,101568.66
2022-09-20T01:13:28.948Z,101569.53
2022-09-20T01:15:59.042Z,101559.81
2022-09-20T01:18:26.898Z,101573.75
2022-09-20T01:20:54.271Z,101578.09
2022-09-20T01:23:36.081Z,101577.00
2022-09-20T01:26:20.948Z,101570.78
2022-09-20T01:28:49.767Z,101579.66
2022-09-20T01:31:26.628Z,101571.88
2022-09-20T01:33:58.861Z,101576.81
2022-09-20T01:36:39.825Z,101579.47
2022-09-20T01:39:24.763Z,101577.63
2022-09-20T01:41:58.088Z,101576.69
2022-09-20T01:44:27.872Z,101582.22
2022-09-20T01:47:05.794Z,101584.34
2022-09-20T01:50:08.087Z,101580.03
2022-09-20T01:52:52.998Z,101579.41
2022-09-20T01:55:38.175Z,101581.56
2022-09-20T01:58:31.771Z,101590.31
2022-09-20T02:01:23.507Z,101583.59
2022-09-20T02:04:16.347Z,101588.94
2022-09-20T02:07:01.583Z,101583.47
2022-09-20T02:09:42.228Z,101589.81
2022-09-20T02:12:38.894Z,101580.25
2022-09-20T02:15:23.881Z,101583.59
2022-09-20T02:18:11.768Z,101579.34
2022-09-20T02:21:11.776Z,101581.94
2022-09-20T02:23:50.682Z,101573.91
2022-09-20T02:26:17.245Z,101568.38
2022-09-20T02:28:55.234Z,101566.34
2022-09-20T02:31:52.564Z,101561.78
2022-09-20T02:34:56.824Z,101566.31
2022-09-20T02:37:44.861Z,101568.06
2022-09-20T02:40:11.450Z,101570.63
2022-09-20T02:51:36.863Z,101557.47
2022-09-20T02:54:22.242Z,101553.75
2022-09-20T02:57:13.822Z,101559.91
2022-09-20T02:59:46.653Z,101566.66
2022-09-20T03:02:22.589Z,101570.31
2022-09-20T03:05:19.754Z,101559.69
2022-09-20T03:08:11.223Z,101552.31
2022-09-20T03:10:45.379Z,101552.53
2022-09-20T03:13:51.160Z,101559.63
2022-09-20T03:16:52.564Z,101568.44
2022-09-20T03:19:35.050Z,101567.56
2022-09-20T03:22:26.339Z,101561.59
2022-09-20T03:25:05.070Z,101565.28
2022-09-20T03:27:50.371Z,101569.03
2022-09-20T03:30:34.996Z,101571.59
2022-09-20T03:33:16.824Z,101564.38
2022-09-20T03:36:10.878Z,101570.56
2022-09-20T03:38:46.661Z,101568.16
2022-09-20T03:41:23.633Z,101568.91
2022-09-20T03:43:56.524Z,101575.47
2022-09-20T03:46:42.840Z,101569.31
2022-09-20T03:49:51.481Z,101569.72
2022-09-20T03:52:36.616Z,101567.31
2022-09-20T03:55:15.465Z,101568.22
2022-09-20T03:57:42.191Z,101573.19
2022-09-20T04:00:21.055Z,101577.16
2022-09-20T04:02:59.935Z,101571.78
2022-09-20T04:06:05.503Z,101575.59
2022-09-20T04:08:33.332Z,101570.06
2022-09-20T04:11:06.268Z,101570.81
2022-09-20T04:13:36.290Z,101574.13
2022-09-20T04:16:24.894Z,101577.84
2022-09-20T04:18:57.741Z,101571.63
2022-09-20T04:21:54.840Z,101579.03
2022-09-20T04:24:33.389Z,101580.22
2022-09-20T04:27:24.247Z,101577.69
2022-09-20T04:30:05.494Z,101578.09
2022-09-20T04:32:33.903Z,101571.59
2022-09-20T04:35:41.413Z,101572.41
2022-09-20T04:38:15.219Z,101573.56
2022-09-20T04:40:54.356Z,101579.53
2022-09-20T04:43:39.321Z,101582.31
2022-09-20T04:46:29.688Z,101576.09
2022-09-20T04:49:18.895Z,101577.56
2022-09-20T04:52:19.255Z,101588.28
2022-09-20T04:55:28.008Z,101590.94
2022-09-20T04:58:17.016Z,101586.63
2022-09-20T05:00:43.874Z,101587.41
2022-09-20T05:03:36.083Z,101585.75
2022-09-20T05:06:27.246Z,101594.75
2022-09-20T05:09:20.190Z,101599.47
2022-09-20T05:11:52.636Z,101594.94
2022-09-20T05:17:16.855Z,101598.22
2022-09-20T05:20:14.478Z,101607.81
2022-09-20T05:23:25.886Z,101597.59
2022-09-20T05:26:15.244Z,101602.19
2022-09-20T05:29:29.558Z,101604.16
2022-09-20T05:58:23.296Z,101619.09
2022-09-20T06:00:57.300Z,101623.06
2022-09-20T06:04:08.306Z,101618.22
2022-09-20T06:06:53.778Z,101624.69
2022-09-20T06:09:32.659Z,101626.75
2022-09-20T06:12:41.170Z,101632.56
2022-09-20T06:15:21.522Z,101635.16
2022-09-20T06:18:19.180Z,101634.59
2022-09-20T06:20:57.651Z,101635.16
2022-09-20T06:23:25.195Z,101631.75
2022-09-20T06:26:14.178Z,101631.97
2022-09-20T06:28:44.302Z,101642.06
2022-09-20T06:31:11.363Z,101647.81
2022-09-20T06:33:53.770Z,101646.97
2022-09-20T06:36:44.518Z,101649.16
2022-09-20T06:39:52.537Z,101651.34
2022-09-20T06:42:23.332Z,101650.38
2022-09-20T06:45:02.480Z,101654.94
2022-09-20T06:47:48.322Z,101651.00
2022-09-20T06:50:16.535Z,101656.31
2022-09-20T06:52:47.516Z,101662.44
2022-09-20T06:55:29.292Z,101658.34
2022-09-20T06:57:56.483Z,101658.16
2022-09-20T07:00:23.259Z,101653.28
2022-09-20T07:02:51.334Z,101656.38
2022-09-20T07:05:21.932Z,101654.47
2022-09-20T07:07:57.155Z,101663.50
2022-09-20T07:10:26.229Z,101666.25
2022-09-20T07:12:56.256Z,101667.50
2022-09-20T07:15:24.264Z,101661.78
2022-09-20T07:18:18.718Z,101659.50
2022-09-20T07:20:54.431Z,101667.91
2022-09-20T07:23:24.404Z,101660.38
2022-09-20T07:25:55.750Z,101659.31
2022-09-20T07:28:22.698Z,101658.63
2022-09-20T07:30:50.172Z,101660.84
2022-09-20T07:33:21.488Z,101666.44
2022-09-20T07:35:49.061Z,101666.94
2022-09-20T07:38:19.158Z,101666.50
2022-09-20T07:40:46.322Z,101667.00
2022-09-20T07:43:13.068Z,101665.50
2022-09-20T07:45:39.946Z,101673.50
2022-09-20T07:48:09.621Z,101662.88
2022-09-20T07:50:36.555Z,101659.34
2022-09-20T07:53:04.782Z,101658.88
2022-09-20T07:55:31.521Z,101666.56
2022-09-20T07:57:58.244Z,101683.09
2022-09-20T08:00:24.984Z,101679.47
2022-09-20T08:02:59.209Z,101685.19
2022-09-20T08:05:26.515Z,101688.59
2022-09-20T08:07:53.224Z,101686.88
2022-09-20T08:10:20.246Z,101688.69
2022-09-20T08:15:34.306Z,101694.75
2022-09-20T08:18:04.288Z,101698.44
2022-09-20T08:20:31.026Z,101704.38
2022-09-20T08:23:22.107Z,101712.44
2022-09-20T08:25:45.725Z,101703.25
2022-09-20T08:28:12.373Z,101708.63
2022-09-20T08:30:39.140Z,101700.66
2022-09-20T08:33:07.068Z,101699.94
2022-09-20T08:35:39.849Z,101702.38
2022-09-20T08:40:59.574Z,101701.91
2022-09-20T08:43:30.042Z,101704.16
2022-09-20T08:45:59.026Z,101705.63
2022-09-20T08:48:32.442Z,101703.59
2022-09-20T08:51:05.626Z,101712.25
2022-09-20T08:53:33.853Z,101708.19
2022-09-20T08:56:01.440Z,101719.47
2022-09-20T08:58:28.561Z,101714.03
2022-09-20T09:01:00.102Z,101717.75
2022-09-20T09:03:28.271Z,101722.06
2022-09-20T09:06:01.213Z,101713.47
2022-09-20T09:08:38.329Z,101717.56
2022-09-20T09:11:09.602Z,101718.84
2022-09-20T09:13:45.347Z,101716.28
2022-09-20T09:16:22.622Z,101705.91
2022-09-20T09:18:51.736Z,101711.47
2022-09-20T09:21:23.862Z,101708.91
2022-09-20T09:23:54.395Z,101719.78
2022-09-20T09:26:23.840Z,101711.69
2022-09-20T09:29:12.386Z,101718.78
2022-09-20T09:31:39.905Z,101710.00
2022-09-20T09:34:26.547Z,101710.66
2022-09-20T09:36:54.471Z,101716.63
2022-09-20T09:39:38.371Z,101724.34
2022-09-20T09:42:26.181Z,101707.13
2022-09-20T09:44:53.314Z,101703.56
2022-09-20T09:47:30.007Z,101702.97
2022-09-20T09:50:04.830Z,101701.81
2022-09-20T09:52:35.450Z,101718.94
2022-09-20T09:55:05.426Z,101717.19
2022-09-20T09:57:52.037Z,101722.72
2022-09-20T10:01:08.822Z,101713.88
2022-09-20T10:03:18.923Z,101727.53
2022-09-20T10:06:14.766Z,101723.03
2022-09-20T10:09:05.479Z,101713.06
2022-09-20T10:11:50.880Z,101717.22
2022-09-20T10:14:36.708Z,101723.19
2022-09-20T10:17:31.782Z,101716.59
2022-09-20T10:20:12.120Z,101712.00
2022-09-20T10:23:39.400Z,101722.72
2022-09-20T10:26:08.082Z,101717.50
2022-09-20T10:28:51.583Z,101720.44
2022-09-20T10:31:44.841Z,101725.94
2022-09-20T10:38:21.981Z,101713.22
2022-09-20T10:41:36.550Z,101710.72
2022-09-20T10:52:22.659Z,101711.91
2022-09-20T10:55:05.409Z,101712.88
2022-09-20T10:57:58.774Z,101712.38
2022-09-20T11:01:29.149Z,101706.88
2022-09-20T11:04:37.942Z,101706.78
2022-09-20T11:07:19.586Z,101700.56
2022-09-20T11:10:03.131Z,101716.38
2022-09-20T11:12:44.867Z,101702.31
2022-09-20T11:15:55.070Z,101713.94
2022-09-20T11:21:51.996Z,101717.34
2022-09-20T11:24:52.668Z,101715.53
2022-09-20T11:31:35.026Z,101716.66
2022-09-20T11:34:36.174Z,101718.97
2022-09-20T11:37:22.568Z,101714.28
2022-09-20T11:40:51.634Z,101720.84
2022-09-20T11:44:40.059Z,101723.50
2022-09-20T11:48:17.792Z,101724.66
2022-09-20T11:51:07.229Z,101736.06
2022-09-20T11:58:18.315Z,101728.06
2022-09-20T12:01:28.114Z,101734.63
2022-09-20T12:11:08.493Z,101719.22
2022-09-20T12:13:56.908Z,101713.69
2022-09-20T12:17:38.339Z,101724.09
2022-09-20T12:28:05.612Z,101713.22
2022-09-20T12:30:52.378Z,101720.75
2022-09-20T16:59:07.916Z,101739.06
2022-09-20T17:01:45.247Z,101738.84
2022-09-20T17:04:14.351Z,101738.06
2022-09-20T17:06:43.502Z,101742.41
2022-09-20T17:09:19.194Z,101738.16
2022-09-20T17:16:05.863Z,101739.22
2022-09-20T17:18:50.454Z,101746.81
2022-09-20T17:21:28.138Z,101745.84
2022-09-20T17:24:29.355Z,101747.34
2022-09-20T17:27:21.018Z,101744.63
2022-09-20T17:30:14.244Z,101760.25
2022-09-20T17:33:18.873Z,101755.63
2022-09-20T17:35:54.995Z,101767.00
2022-09-20T17:38:22.835Z,101768.56
2022-09-20T17:40:58.883Z,101764.94
2022-09-20T17:43:27.250Z,101777.13
2022-09-20T17:45:58.582Z,101774.47
2022-09-20T17:48:40.614Z,101771.69
2022-09-20T17:51:28.405Z,101778.81
2022-09-20T20:39:21.690Z,101903.38
2022-09-20T20:41:52.708Z,101914.31
2022-09-20T20:45:18.932Z,101901.03
2022-09-20T20:47:51.409Z,101919.47
2022-09-20T20:50:20.544Z,101912.75
2022-09-20T20:52:57.538Z,101927.09
2022-09-20T20:55:27.600Z,101931.00
2022-09-20T20:57:58.408Z,101929.94
2022-09-20T21:00:28.749Z,101930.28
2022-09-20T21:03:00.118Z,101924.19
2022-09-20T21:05:32.926Z,101930.91
2022-09-20T21:07:59.757Z,101936.97
2022-09-20T21:10:26.671Z,101931.03
2022-09-20T21:12:56.941Z,101937.44
2022-09-20T21:15:28.402Z,101943.66
2022-09-20T21:17:59.060Z,101941.25
2022-09-20T21:20:36.448Z,101947.94
2022-09-20T21:23:03.254Z,101942.00
2022-09-20T21:25:29.958Z,101944.91
2022-09-20T21:27:59.838Z,101939.75
2022-09-20T21:30:26.447Z,101944.09
2022-09-20T21:33:06.359Z,101949.97
2022-09-20T21:35:34.608Z,101952.03
2022-09-20T21:38:01.479Z,101947.59
2022-09-20T21:40:29.606Z,101943.41
2022-09-20T21:43:01.443Z,101941.81
2022-09-20T21:45:30.885Z,101950.97
2022-09-20T21:48:06.738Z,101961.03
2022-09-20T21:50:35.457Z,101954.00
2022-09-20T21:53:06.084Z,101952.81
2022-09-20T21:55:34.395Z,101950.84
2022-09-20T21:58:12.060Z,101955.06
2022-09-20T22:04:49.612Z,101957.28
2022-09-20T22:07:47.453Z,101959.50
2022-09-20T22:10:17.268Z,101964.63
2022-09-20T22:12:46.340Z,101962.38
2022-09-20T22:41:01.279Z,101968.72
2022-09-20T22:43:33.044Z,101960.25
2022-09-20T22:46:06.782Z,101953.88
2022-09-20T22:48:56.680Z,101963.31
2022-09-20T22:55:05.806Z,101955.91
2022-09-20T22:57:32.764Z,101963.16
2022-09-20T23:00:11.118Z,101962.13
2022-09-20T23:06:27.547Z,101960.44
2022-09-20T23:08:59.786Z,101957.19
2022-09-20T23:11:54.532Z,101961.09
2022-09-20T23:14:25.525Z,101951.88
2022-09-20T23:16:53.112Z,101960.88
2022-09-20T23:19:23.190Z,101966.31
2022-09-20T23:22:01.584Z,101959.91
2022-09-20T23:25:17.996Z,101967.59
2022-09-20T23:32:34.936Z,101961.63
2022-09-20T23:35:48.688Z,101968.09
